sensor_id;sensor_type;location;lat;lon;timestamp;pressure;altitude;pressure_sealevel;temperature
68510;BMP180;55512;50.102;19.958;2022-12-11T00:00:38;97342.00;;;0.50
68510;BMP180;55512;50.102;19.958;2022-12-11T00:03:04;97340.80;;;0.40
68510;BMP180;55512;50.102;19.958;2022-12-11T00:05:29;97342.20;;;0.40
68510;BMP180;55512;50.102;19.958;2022-12-11T00:07:55;97336.20;;;0.38
68510;BMP180;55512;50.102;19.958;2022-12-11T00:10:21;97336.40;;;0.30
68510;BMP180;55512;50.102;19.958;2022-12-11T00:12:47;97333.00;;;0.30
68510;BMP180;55512;50.102;19.958;2022-12-11T00:15:12;97330.00;;;0.30
68510;BMP180;55512;50.102;19.958;2022-12-11T00:17:38;97328.80;;;0.30
68510;BMP180;55512;50.102;19.958;2022-12-11T00:20:04;97328.40;;;0.30
68510;BMP180;55512;50.102;19.958;2022-12-11T00:24:00;97325.60;;;0.30
68510;BMP180;55512;50.102;19.958;2022-12-11T00:26:26;97325.20;;;0.30
68510;BMP180;55512;50.102;19.958;2022-12-11T00:28:55;97326.00;;;0.30
68510;BMP180;55512;50.102;19.958;2022-12-11T00:31:22;97318.40;;;0.30
68510;BMP180;55512;50.102;19.958;2022-12-11T00:33:49;97314.60;;;0.30
68510;BMP180;55512;50.102;19.958;2022-12-11T00:36:24;97310.20;;;0.30
68510;BMP180;55512;50.102;19.958;2022-12-11T00:38:51;97316.60;;;0.30
68510;BMP180;55512;50.102;19.958;2022-12-11T00:41:17;97311.00;;;0.30
68510;BMP180;55512;50.102;19.958;2022-12-11T00:43:43;97307.80;;;0.36
68510;BMP180;55512;50.102;19.958;2022-12-11T00:46:10;97298.40;;;0.40
68510;BMP180;55512;50.102;19.958;2022-12-11T00:48:35;97303.80;;;0.40
68510;BMP180;55512;50.102;19.958;2022-12-11T00:51:01;97300.80;;;0.40
68510;BMP180;55512;50.102;19.958;2022-12-11T00:53:27;97297.20;;;0.32
68510;BMP180;55512;50.102;19.958;2022-12-11T00:55:53;97296.00;;;0.40
68510;BMP180;55512;50.102;19.958;2022-12-11T00:58:19;97302.00;;;0.40
68510;BMP180;55512;50.102;19.958;2022-12-11T01:00:45;97298.20;;;0.40
68510;BMP180;55512;50.102;19.958;2022-12-11T01:03:14;97297.40;;;0.40
68510;BMP180;55512;50.102;19.958;2022-12-11T01:05:40;97299.20;;;0.40
68510;BMP180;55512;50.102;19.958;2022-12-11T01:08:06;97297.60;;;0.40
68510;BMP180;55512;50.102;19.958;2022-12-11T01:10:32;97292.20;;;0.40
68510;BMP180;55512;50.102;19.958;2022-12-11T01:13:05;97297.00;;;0.40
68510;BMP180;55512;50.102;19.958;2022-12-11T01:15:40;97295.60;;;0.30
68510;BMP180;55512;50.102;19.958;2022-12-11T01:18:05;97296.40;;;0.30
68510;BMP180;55512;50.102;19.958;2022-12-11T01:20:32;97292.60;;;0.30
68510;BMP180;55512;50.102;19.958;2022-12-11T01:22:59;97294.60;;;0.30
68510;BMP180;55512;50.102;19.958;2022-12-11T01:25:26;97300.20;;;0.32
68510;BMP180;55512;50.102;19.958;2022-12-11T01:27:54;97297.80;;;0.34
68510;BMP180;55512;50.102;19.958;2022-12-11T01:30:22;97295.60;;;0.30
68510;BMP180;55512;50.102;19.958;2022-12-11T01:32:48;97299.60;;;0.30
68510;BMP180;55512;50.102;19.958;2022-12-11T01:35:14;97296.80;;;0.30
68510;BMP180;55512;50.102;19.958;2022-12-11T01:37:40;97297.40;;;0.30
68510;BMP180;55512;50.102;19.958;2022-12-11T01:40:14;97293.00;;;0.30
68510;BMP180;55512;50.102;19.958;2022-12-11T01:42:40;97294.00;;;0.30
68510;BMP180;55512;50.102;19.958;2022-12-11T01:45:31;97293.20;;;0.30
68510;BMP180;55512;50.102;19.958;2022-12-11T01:48:13;97286.20;;;0.30
68510;BMP180;55512;50.102;19.958;2022-12-11T01:50:49;97290.40;;;0.22
68510;BMP180;55512;50.102;19.958;2022-12-11T01:53:20;97294.40;;;0.26
68510;BMP180;55512;50.102;19.958;2022-12-11T01:55:50;97291.80;;;0.20
68510;BMP180;55512;50.102;19.958;2022-12-11T01:58:19;97288.60;;;0.20
68510;BMP180;55512;50.102;19.958;2022-12-11T02:00:46;97285.40;;;0.20
68510;BMP180;55512;50.102;19.958;2022-12-11T02:03:12;97282.60;;;0.20
68510;BMP180;55512;50.102;19.958;2022-12-11T02:05:38;97278.20;;;0.20
68510;BMP180;55512;50.102;19.958;2022-12-11T02:08:05;97278.00;;;0.20
68510;BMP180;55512;50.102;19.958;2022-12-11T02:10:58;97275.00;;;0.18
68510;BMP180;55512;50.102;19.958;2022-12-11T02:13:51;97274.00;;;0.10
68510;BMP180;55512;50.102;19.958;2022-12-11T02:16:40;97272.20;;;0.10
68510;BMP180;55512;50.102;19.958;2022-12-11T02:19:43;97261.80;;;0.12
68510;BMP180;55512;50.102;19.958;2022-12-11T02:22:21;97252.80;;;0.10
68510;BMP180;55512;50.102;19.958;2022-12-11T02:25:17;97256.00;;;0.10
68510;BMP180;55512;50.102;19.958;2022-12-11T02:27:51;97260.80;;;0.10
68510;BMP180;55512;50.102;19.958;2022-12-11T02:30:22;97262.60;;;0.10
68510;BMP180;55512;50.102;19.958;2022-12-11T02:32:58;97266.00;;;0.08
68510;BMP180;55512;50.102;19.958;2022-12-11T02:38:01;97264.20;;;0.00
68510;BMP180;55512;50.102;19.958;2022-12-11T02:40:31;97258.60;;;0.00
68510;BMP180;55512;50.102;19.958;2022-12-11T02:43:03;97259.40;;;-0.02
68510;BMP180;55512;50.102;19.958;2022-12-11T02:45:32;97260.00;;;0.00
68510;BMP180;55512;50.102;19.958;2022-12-11T02:48:02;97252.40;;;0.00
68510;BMP180;55512;50.102;19.958;2022-12-11T02:50:29;97254.00;;;0.00
68510;BMP180;55512;50.102;19.958;2022-12-11T02:52:56;97252.60;;;-0.02
68510;BMP180;55512;50.102;19.958;2022-12-11T02:55:26;97247.20;;;0.00
68510;BMP180;55512;50.102;19.958;2022-12-11T02:58:04;97247.20;;;0.00
68510;BMP180;55512;50.102;19.958;2022-12-11T03:00:32;97243.80;;;0.00
68510;BMP180;55512;50.102;19.958;2022-12-11T03:02:58;97244.80;;;0.10
68510;BMP180;55512;50.102;19.958;2022-12-11T03:05:23;97244.60;;;0.10
68510;BMP180;55512;50.102;19.958;2022-12-11T03:07:51;97251.80;;;0.10
68510;BMP180;55512;50.102;19.958;2022-12-11T03:10:18;97257.60;;;0.10
68510;BMP180;55512;50.102;19.958;2022-12-11T03:12:49;97256.40;;;0.20
68510;BMP180;55512;50.102;19.958;2022-12-11T03:15:19;97243.80;;;0.20
68510;BMP180;55512;50.102;19.958;2022-12-11T03:18:23;97241.60;;;0.20
68510;BMP180;55512;50.102;19.958;2022-12-11T03:21:08;97238.00;;;0.20
68510;BMP180;55512;50.102;19.958;2022-12-11T03:23:48;97235.20;;;0.12
68510;BMP180;55512;50.102;19.958;2022-12-11T03:26:18;97236.20;;;0.10
68510;BMP180;55512;50.102;19.958;2022-12-11T03:28:53;97231.00;;;0.10
68510;BMP180;55512;50.102;19.958;2022-12-11T03:31:48;97224.60;;;0.10
68510;BMP180;55512;50.102;19.958;2022-12-11T03:34:24;97222.60;;;0.10
68510;BMP180;55512;50.102;19.958;2022-12-11T03:36:54;97217.40;;;0.10
68510;BMP180;55512;50.102;19.958;2022-12-11T03:39:28;97221.60;;;0.08
68510;BMP180;55512;50.102;19.958;2022-12-11T03:42:00;97211.60;;;0.00
68510;BMP180;55512;50.102;19.958;2022-12-11T03:44:27;97214.80;;;0.02
68510;BMP180;55512;50.102;19.958;2022-12-11T03:46:55;97210.00;;;0.00
68510;BMP180;55512;50.102;19.958;2022-12-11T03:49:27;97211.20;;;-0.04
68510;BMP180;55512;50.102;19.958;2022-12-11T03:51:56;97200.80;;;-0.10
68510;BMP180;55512;50.102;19.958;2022-12-11T03:54:24;97200.60;;;-0.20
68510;BMP180;55512;50.102;19.958;2022-12-11T03:56:57;97201.80;;;-0.20
68510;BMP180;55512;50.102;19.958;2022-12-11T03:59:23;97198.20;;;-0.20
68510;BMP180;55512;50.102;19.958;2022-12-11T04:01:50;97197.60;;;-0.20
68510;BMP180;55512;50.102;19.958;2022-12-11T04:04:15;97195.60;;;-0.20
68510;BMP180;55512;50.102;19.958;2022-12-11T04:06:41;97195.80;;;-0.30
68510;BMP180;55512;50.102;19.958;2022-12-11T04:09:07;97198.00;;;-0.30
68510;BMP180;55512;50.102;19.958;2022-12-11T04:11:32;97196.60;;;-0.30
68510;BMP180;55512;50.102;19.958;2022-12-11T04:14:10;97201.60;;;-0.30
68510;BMP180;55512;50.102;19.958;2022-12-11T04:16:56;97198.60;;;-0.30
68510;BMP180;55512;50.102;19.958;2022-12-11T04:19:22;97198.60;;;-0.30
68510;BMP180;55512;50.102;19.958;2022-12-11T04:22:12;97194.20;;;-0.30
68510;BMP180;55512;50.102;19.958;2022-12-11T04:24:58;97183.80;;;-0.32
68510;BMP180;55512;50.102;19.958;2022-12-11T04:27:24;97183.40;;;-0.38
68510;BMP180;55512;50.102;19.958;2022-12-11T04:30:14;97183.20;;;-0.42
68510;BMP180;55512;50.102;19.958;2022-12-11T04:32:40;97185.40;;;-0.48
68510;BMP180;55512;50.102;19.958;2022-12-11T04:35:08;97188.80;;;-0.50
68510;BMP180;55512;50.102;19.958;2022-12-11T04:37:35;97194.20;;;-0.50
68510;BMP180;55512;50.102;19.958;2022-12-11T04:40:01;97194.80;;;-0.52
68510;BMP180;55512;50.102;19.958;2022-12-11T04:42:30;97195.00;;;-0.50
68510;BMP180;55512;50.102;19.958;2022-12-11T04:44:55;97196.60;;;-0.60
68510;BMP180;55512;50.102;19.958;2022-12-11T04:47:21;97194.60;;;-0.60
68510;BMP180;55512;50.102;19.958;2022-12-11T04:49:47;97190.00;;;-0.60
68510;BMP180;55512;50.102;19.958;2022-12-11T04:52:12;97186.40;;;-0.58
68510;BMP180;55512;50.102;19.958;2022-12-11T04:54:38;97186.40;;;-0.60
68510;BMP180;55512;50.102;19.958;2022-12-11T04:57:04;97186.60;;;-0.60
68510;BMP180;55512;50.102;19.958;2022-12-11T04:59:32;97181.60;;;-0.60
68510;BMP180;55512;50.102;19.958;2022-12-11T05:01:57;97177.80;;;-0.60
68510;BMP180;55512;50.102;19.958;2022-12-11T05:04:23;97182.20;;;-0.60
68510;BMP180;55512;50.102;19.958;2022-12-11T05:06:49;97184.80;;;-0.60
68510;BMP180;55512;50.102;19.958;2022-12-11T05:09:15;97186.00;;;-0.50
68510;BMP180;55512;50.102;19.958;2022-12-11T05:11:41;97183.40;;;-0.50
68510;BMP180;55512;50.102;19.958;2022-12-11T05:14:06;97179.20;;;-0.50
68510;BMP180;55512;50.102;19.958;2022-12-11T05:16:32;97175.80;;;-0.40
68510;BMP180;55512;50.102;19.958;2022-12-11T05:18:57;97177.40;;;-0.40
68510;BMP180;55512;50.102;19.958;2022-12-11T05:21:23;97169.60;;;-0.32
68510;BMP180;55512;50.102;19.958;2022-12-11T05:23:48;97167.40;;;-0.30
68510;BMP180;55512;50.102;19.958;2022-12-11T05:26:18;97157.40;;;-0.40
68510;BMP180;55512;50.102;19.958;2022-12-11T05:28:44;97160.20;;;-0.40
68510;BMP180;55512;50.102;19.958;2022-12-11T05:31:14;97163.80;;;-0.42
68510;BMP180;55512;50.102;19.958;2022-12-11T05:33:40;97160.20;;;-0.48
68510;BMP180;55512;50.102;19.958;2022-12-11T05:36:07;97157.80;;;-0.50
68510;BMP180;55512;50.102;19.958;2022-12-11T05:38:32;97155.00;;;-0.50
68510;BMP180;55512;50.102;19.958;2022-12-11T05:41:04;97162.60;;;-0.40
68510;BMP180;55512;50.102;19.958;2022-12-11T05:43:34;97161.60;;;-0.40
68510;BMP180;55512;50.102;19.958;2022-12-11T05:46:10;97159.40;;;-0.40
68510;BMP180;55512;50.102;19.958;2022-12-11T05:48:37;97147.60;;;-0.42
68510;BMP180;55512;50.102;19.958;2022-12-11T05:51:05;97153.60;;;-0.50
68510;BMP180;55512;50.102;19.958;2022-12-11T05:53:32;97151.40;;;-0.50
68510;BMP180;55512;50.102;19.958;2022-12-11T05:56:07;97149.20;;;-0.52
68510;BMP180;55512;50.102;19.958;2022-12-11T05:58:34;97145.40;;;-0.58
68510;BMP180;55512;50.102;19.958;2022-12-11T06:01:01;97141.00;;;-0.50
68510;BMP180;55512;50.102;19.958;2022-12-11T06:03:27;97137.40;;;-0.52
68510;BMP180;55512;50.102;19.958;2022-12-11T06:05:53;97129.40;;;-0.60
68510;BMP180;55512;50.102;19.958;2022-12-11T06:08:18;97117.60;;;-0.60
68510;BMP180;55512;50.102;19.958;2022-12-11T06:10:49;97123.40;;;-0.70
68510;BMP180;55512;50.102;19.958;2022-12-11T06:13:15;97125.60;;;-0.80
68510;BMP180;55512;50.102;19.958;2022-12-11T06:15:41;97127.20;;;-0.82
68510;BMP180;55512;50.102;19.958;2022-12-11T06:18:07;97129.00;;;-0.92
68510;BMP180;55512;50.102;19.958;2022-12-11T06:20:34;97127.40;;;-1.00
68510;BMP180;55512;50.102;19.958;2022-12-11T06:23:00;97133.00;;;-1.02
68510;BMP180;55512;50.102;19.958;2022-12-11T06:25:27;97140.60;;;-1.10
68510;BMP180;55512;50.102;19.958;2022-12-11T06:27:53;97138.20;;;-1.10
68510;BMP180;55512;50.102;19.958;2022-12-11T06:30:19;97145.60;;;-1.10
68510;BMP180;55512;50.102;19.958;2022-12-11T06:32:46;97148.40;;;-1.10
68510;BMP180;55512;50.102;19.958;2022-12-11T06:35:11;97148.00;;;-1.10
68510;BMP180;55512;50.102;19.958;2022-12-11T06:37:38;97146.20;;;-1.10
68510;BMP180;55512;50.102;19.958;2022-12-11T06:40:09;97155.60;;;-1.04
68510;BMP180;55512;50.102;19.958;2022-12-11T06:42:35;97153.20;;;-1.10
68510;BMP180;55512;50.102;19.958;2022-12-11T06:45:01;97158.60;;;-1.10
68510;BMP180;55512;50.102;19.958;2022-12-11T06:47:30;97160.80;;;-1.10
68510;BMP180;55512;50.102;19.958;2022-12-11T06:49:56;97162.20;;;-1.10
68510;BMP180;55512;50.102;19.958;2022-12-11T06:52:24;97150.40;;;-1.20
68510;BMP180;55512;50.102;19.958;2022-12-11T06:54:52;97166.00;;;-1.20
68510;BMP180;55512;50.102;19.958;2022-12-11T06:57:18;97162.80;;;-1.20
68510;BMP180;55512;50.102;19.958;2022-12-11T06:59:44;97165.00;;;-1.20
68510;BMP180;55512;50.102;19.958;2022-12-11T07:02:15;97165.60;;;-1.10
68510;BMP180;55512;50.102;19.958;2022-12-11T07:04:41;97164.20;;;-1.10
68510;BMP180;55512;50.102;19.958;2022-12-11T07:07:08;97169.20;;;-1.00
68510;BMP180;55512;50.102;19.958;2022-12-11T07:09:38;97167.20;;;-0.92
68510;BMP180;55512;50.102;19.958;2022-12-11T07:12:05;97157.00;;;-0.90
68510;BMP180;55512;50.102;19.958;2022-12-11T07:14:31;97166.80;;;-0.90
68510;BMP180;55512;50.102;19.958;2022-12-11T07:16:57;97170.40;;;-0.90
68510;BMP180;55512;50.102;19.958;2022-12-11T07:19:23;97169.40;;;-0.80
68510;BMP180;55512;50.102;19.958;2022-12-11T07:21:49;97171.20;;;-0.80
68510;BMP180;55512;50.102;19.958;2022-12-11T07:24:15;97169.40;;;-0.80
68510;BMP180;55512;50.102;19.958;2022-12-11T07:26:41;97171.60;;;-0.80
68510;BMP180;55512;50.102;19.958;2022-12-11T07:29:06;97177.60;;;-0.80
68510;BMP180;55512;50.102;19.958;2022-12-11T07:31:32;97176.20;;;-0.80
68510;BMP180;55512;50.102;19.958;2022-12-11T07:34:02;97180.60;;;-0.80
68510;BMP180;55512;50.102;19.958;2022-12-11T07:36:29;97168.40;;;-0.80
68510;BMP180;55512;50.102;19.958;2022-12-11T07:38:56;97167.00;;;-0.80
68510;BMP180;55512;50.102;19.958;2022-12-11T07:41:22;97169.80;;;-0.76
68510;BMP180;55512;50.102;19.958;2022-12-11T07:43:48;97176.80;;;-0.74
68510;BMP180;55512;50.102;19.958;2022-12-11T07:46:23;97181.20;;;-0.70
68510;BMP180;55512;50.102;19.958;2022-12-11T07:48:49;97182.40;;;-0.76
68510;BMP180;55512;50.102;19.958;2022-12-11T07:53:47;97177.00;;;-0.80
68510;BMP180;55512;50.102;19.958;2022-12-11T07:56:14;97176.40;;;-0.82
68510;BMP180;55512;50.102;19.958;2022-12-11T07:58:40;97178.40;;;-0.86
68510;BMP180;55512;50.102;19.958;2022-12-11T08:01:11;97171.80;;;-0.80
68510;BMP180;55512;50.102;19.958;2022-12-11T08:03:37;97171.00;;;-0.80
68510;BMP180;55512;50.102;19.958;2022-12-11T08:06:04;97174.40;;;-0.80
68510;BMP180;55512;50.102;19.958;2022-12-11T08:08:30;97186.20;;;-0.80
68510;BMP180;55512;50.102;19.958;2022-12-11T08:10:55;97183.40;;;-0.80
68510;BMP180;55512;50.102;19.958;2022-12-11T08:13:24;97189.00;;;-0.70
68510;BMP180;55512;50.102;19.958;2022-12-11T08:15:50;97188.20;;;-0.70
68510;BMP180;55512;50.102;19.958;2022-12-11T08:18:15;97185.60;;;-0.70
68510;BMP180;55512;50.102;19.958;2022-12-11T08:20:40;97184.80;;;-0.60
68510;BMP180;55512;50.102;19.958;2022-12-11T08:23:06;97184.60;;;-0.60
68510;BMP180;55512;50.102;19.958;2022-12-11T08:25:31;97184.00;;;-0.50
68510;BMP180;55512;50.102;19.958;2022-12-11T08:27:57;97181.80;;;-0.50
68510;BMP180;55512;50.102;19.958;2022-12-11T08:30:22;97182.40;;;-0.46
68510;BMP180;55512;50.102;19.958;2022-12-11T08:32:48;97187.60;;;-0.40
68510;BMP180;55512;50.102;19.958;2022-12-11T08:35:13;97179.80;;;-0.40
68510;BMP180;55512;50.102;19.958;2022-12-11T08:37:39;97189.60;;;-0.40
68510;BMP180;55512;50.102;19.958;2022-12-11T08:40:07;97190.20;;;-0.34
68510;BMP180;55512;50.102;19.958;2022-12-11T08:42:33;97185.40;;;-0.30
68510;BMP180;55512;50.102;19.958;2022-12-11T08:44:59;97185.00;;;-0.30
68510;BMP180;55512;50.102;19.958;2022-12-11T08:47:24;97185.00;;;-0.30
68510;BMP180;55512;50.102;19.958;2022-12-11T08:49:50;97182.00;;;-0.30
68510;BMP180;55512;50.102;19.958;2022-12-11T08:52:15;97176.80;;;-0.34
68510;BMP180;55512;50.102;19.958;2022-12-11T08:54:41;97194.20;;;-0.40
68510;BMP180;55512;50.102;19.958;2022-12-11T08:57:06;97177.40;;;-0.46
68510;BMP180;55512;50.102;19.958;2022-12-11T08:59:32;97185.80;;;-0.50
68510;BMP180;55512;50.102;19.958;2022-12-11T09:01:57;97178.40;;;-0.60
68510;BMP180;55512;50.102;19.958;2022-12-11T09:04:22;97168.60;;;-0.70
68510;BMP180;55512;50.102;19.958;2022-12-11T09:06:48;97168.00;;;-0.70
68510;BMP180;55512;50.102;19.958;2022-12-11T09:09:14;97169.40;;;-0.70
68510;BMP180;55512;50.102;19.958;2022-12-11T09:11:39;97177.80;;;-0.70
68510;BMP180;55512;50.102;19.958;2022-12-11T09:14:05;97176.60;;;-0.70
68510;BMP180;55512;50.102;19.958;2022-12-11T09:16:32;97176.60;;;-0.60
68510;BMP180;55512;50.102;19.958;2022-12-11T09:18:59;97187.60;;;-0.60
68510;BMP180;55512;50.102;19.958;2022-12-11T09:21:29;97180.40;;;-0.60
68510;BMP180;55512;50.102;19.958;2022-12-11T09:23:58;97181.60;;;-0.60
68510;BMP180;55512;50.102;19.958;2022-12-11T09:26:25;97188.80;;;-0.62
68510;BMP180;55512;50.102;19.958;2022-12-11T09:28:51;97203.40;;;-0.62
68510;BMP180;55512;50.102;19.958;2022-12-11T09:31:30;97187.80;;;-0.70
68510;BMP180;55512;50.102;19.958;2022-12-11T09:34:00;97197.20;;;-0.78
68510;BMP180;55512;50.102;19.958;2022-12-11T09:36:26;97184.20;;;-0.80
68510;BMP180;55512;50.102;19.958;2022-12-11T09:38:52;97190.40;;;-0.80
68510;BMP180;55512;50.102;19.958;2022-12-11T09:46:44;97174.40;;;-0.80
68510;BMP180;55512;50.102;19.958;2022-12-11T09:49:40;97168.20;;;-0.80
68510;BMP180;55512;50.102;19.958;2022-12-11T09:52:22;97167.60;;;-0.80
68510;BMP180;55512;50.102;19.958;2022-12-11T09:54:56;97164.60;;;-0.70
68510;BMP180;55512;50.102;19.958;2022-12-11T09:57:38;97162.80;;;-0.70
68510;BMP180;55512;50.102;19.958;2022-12-11T10:06:08;97156.20;;;-0.50
68510;BMP180;55512;50.102;19.958;2022-12-11T10:11:42;97150.60;;;-0.30
68510;BMP180;55512;50.102;19.958;2022-12-11T10:17:32;97156.40;;;-0.20
68510;BMP180;55512;50.102;19.958;2022-12-11T10:20:21;97159.40;;;-0.10
68510;BMP180;55512;50.102;19.958;2022-12-11T10:22:50;97151.80;;;-0.10
68510;BMP180;55512;50.102;19.958;2022-12-11T10:25:30;97162.60;;;-0.10
68510;BMP180;55512;50.102;19.958;2022-12-11T10:27:57;97169.40;;;0.00
68510;BMP180;55512;50.102;19.958;2022-12-11T10:30:26;97166.80;;;0.02
68510;BMP180;55512;50.102;19.958;2022-12-11T10:33:18;97165.40;;;0.10
68510;BMP180;55512;50.102;19.958;2022-12-11T10:35:56;97169.20;;;0.10
68510;BMP180;55512;50.102;19.958;2022-12-11T10:38:38;97161.40;;;0.08
68510;BMP180;55512;50.102;19.958;2022-12-11T10:41:16;97165.20;;;0.00
68510;BMP180;55512;50.102;19.958;2022-12-11T10:43:49;97158.80;;;0.00
68510;BMP180;55512;50.102;19.958;2022-12-11T10:46:19;97157.80;;;0.06
68510;BMP180;55512;50.102;19.958;2022-12-11T10:48:53;97160.00;;;0.06
68510;BMP180;55512;50.102;19.958;2022-12-11T10:54:05;97156.20;;;0.00
68510;BMP180;55512;50.102;19.958;2022-12-11T10:56:34;97161.20;;;0.02
68510;BMP180;55512;50.102;19.958;2022-12-11T10:59:02;97158.00;;;0.00
68510;BMP180;55512;50.102;19.958;2022-12-11T11:01:30;97153.60;;;0.08
68510;BMP180;55512;50.102;19.958;2022-12-11T11:04:12;97152.60;;;0.10
68510;BMP180;55512;50.102;19.958;2022-12-11T11:06:39;97156.80;;;0.10
68510;BMP180;55512;50.102;19.958;2022-12-11T11:09:35;97145.40;;;-0.06
68510;BMP180;55512;50.102;19.958;2022-12-11T11:12:01;97149.60;;;-0.20
68510;BMP180;55512;50.102;19.958;2022-12-11T11:14:27;97145.40;;;-0.22
68510;BMP180;55512;50.102;19.958;2022-12-11T11:16:59;97134.00;;;-0.24
68510;BMP180;55512;50.102;19.958;2022-12-11T11:19:32;97141.80;;;-0.24
68510;BMP180;55512;50.102;19.958;2022-12-11T11:22:17;97133.80;;;-0.30
68510;BMP180;55512;50.102;19.958;2022-12-11T11:24:53;97144.60;;;-0.20
68510;BMP180;55512;50.102;19.958;2022-12-11T11:27:35;97132.20;;;-0.20
68510;BMP180;55512;50.102;19.958;2022-12-11T11:30:06;97136.00;;;-0.10
68510;BMP180;55512;50.102;19.958;2022-12-11T11:32:40;97131.80;;;-0.06
68510;BMP180;55512;50.102;19.958;2022-12-11T11:35:19;97144.00;;;0.00
68510;BMP180;55512;50.102;19.958;2022-12-11T11:40:42;97150.60;;;0.00
68510;BMP180;55512;50.102;19.958;2022-12-11T11:43:19;97156.80;;;0.00
68510;BMP180;55512;50.102;19.958;2022-12-11T11:45:59;97142.00;;;0.00
68510;BMP180;55512;50.102;19.958;2022-12-11T11:48:48;97143.00;;;-0.20
68510;BMP180;55512;50.102;19.958;2022-12-11T11:51:26;97148.20;;;-0.20
68510;BMP180;55512;50.102;19.958;2022-12-11T11:53:58;97149.80;;;-0.20
68510;BMP180;55512;50.102;19.958;2022-12-11T11:56:31;97142.60;;;-0.20
68510;BMP180;55512;50.102;19.958;2022-12-11T12:01:41;97139.00;;;-0.12
68510;BMP180;55512;50.102;19.958;2022-12-11T12:04:07;97137.80;;;-0.18
68510;BMP180;55512;50.102;19.958;2022-12-11T12:07:18;97144.80;;;-0.20
68510;BMP180;55512;50.102;19.958;2022-12-11T12:15:56;97141.80;;;-0.30
68510;BMP180;55512;50.102;19.958;2022-12-11T12:19:00;97142.20;;;-0.20
68510;BMP180;55512;50.102;19.958;2022-12-11T12:21:42;97143.20;;;-0.10
68510;BMP180;55512;50.102;19.958;2022-12-11T12:24:31;97137.80;;;-0.10
68510;BMP180;55512;50.102;19.958;2022-12-11T12:27:18;97146.20;;;-0.06
68510;BMP180;55512;50.102;19.958;2022-12-11T12:30:01;97141.80;;;0.00
68510;BMP180;55512;50.102;19.958;2022-12-11T12:35:37;97132.00;;;0.00
68510;BMP180;55512;50.102;19.958;2022-12-11T12:41:41;97149.80;;;0.00
68510;BMP180;55512;50.102;19.958;2022-12-11T12:44:18;97146.60;;;0.04
68510;BMP180;55512;50.102;19.958;2022-12-11T12:47:17;97141.20;;;0.00
68510;BMP180;55512;50.102;19.958;2022-12-11T12:49:49;97140.20;;;-0.10
68510;BMP180;55512;50.102;19.958;2022-12-11T12:54:55;97138.40;;;-0.20
68510;BMP180;55512;50.102;19.958;2022-12-11T12:57:47;97135.80;;;-0.20
68510;BMP180;55512;50.102;19.958;2022-12-11T13:03:19;97144.60;;;-0.20
68510;BMP180;55512;50.102;19.958;2022-12-11T13:05:56;97143.20;;;-0.30
68510;BMP180;55512;50.102;19.958;2022-12-11T13:08:30;97148.00;;;-0.30
68510;BMP180;55512;50.102;19.958;2022-12-11T13:11:02;97158.00;;;-0.30
68510;BMP180;55512;50.102;19.958;2022-12-11T13:13:36;97161.00;;;-0.30
68510;BMP180;55512;50.102;19.958;2022-12-11T13:18:43;97165.00;;;-0.50
68510;BMP180;55512;50.102;19.958;2022-12-11T13:21:34;97172.40;;;-0.50
68510;BMP180;55512;50.102;19.958;2022-12-11T13:26:38;97180.60;;;-0.56
68510;BMP180;55512;50.102;19.958;2022-12-11T13:29:04;97186.40;;;-0.60
68510;BMP180;55512;50.102;19.958;2022-12-11T13:31:38;97186.60;;;-0.60
68510;BMP180;55512;50.102;19.958;2022-12-11T13:34:21;97189.00;;;-0.60
68510;BMP180;55512;50.102;19.958;2022-12-11T13:36:51;97191.20;;;-0.60
68510;BMP180;55512;50.102;19.958;2022-12-11T13:39:23;97188.60;;;-0.62
68510;BMP180;55512;50.102;19.958;2022-12-11T13:41:55;97188.00;;;-0.68
68510;BMP180;55512;50.102;19.958;2022-12-11T13:44:29;97195.80;;;-0.70
68510;BMP180;55512;50.102;19.958;2022-12-11T13:47:01;97191.00;;;-0.70
68510;BMP180;55512;50.102;19.958;2022-12-11T13:49:33;97192.40;;;-0.80
68510;BMP180;55512;50.102;19.958;2022-12-11T13:52:00;97190.40;;;-0.82
68510;BMP180;55512;50.102;19.958;2022-12-11T13:54:28;97182.40;;;-0.90
68510;BMP180;55512;50.102;19.958;2022-12-11T14:02:04;97190.80;;;-1.08
68510;BMP180;55512;50.102;19.958;2022-12-11T14:04:33;97188.80;;;-1.10
68510;BMP180;55512;50.102;19.958;2022-12-11T14:07:01;97186.20;;;-1.10
68510;BMP180;55512;50.102;19.958;2022-12-11T14:09:27;97190.20;;;-1.20
68510;BMP180;55512;50.102;19.958;2022-12-11T14:11:54;97188.00;;;-1.20
68510;BMP180;55512;50.102;19.958;2022-12-11T14:14:33;97186.00;;;-1.30
68510;BMP180;55512;50.102;19.958;2022-12-11T14:17:00;97187.40;;;-1.30
68510;BMP180;55512;50.102;19.958;2022-12-11T14:19:26;97195.20;;;-1.30
68510;BMP180;55512;50.102;19.958;2022-12-11T14:22:03;97195.40;;;-1.30
68510;BMP180;55512;50.102;19.958;2022-12-11T14:24:30;97190.20;;;-1.26
68510;BMP180;55512;50.102;19.958;2022-12-11T14:26:57;97189.40;;;-1.30
68510;BMP180;55512;50.102;19.958;2022-12-11T14:29:26;97192.20;;;-1.22
68510;BMP180;55512;50.102;19.958;2022-12-11T14:31:53;97190.80;;;-1.28
68510;BMP180;55512;50.102;19.958;2022-12-11T14:34:29;97186.80;;;-1.30
68510;BMP180;55512;50.102;19.958;2022-12-11T14:36:58;97186.80;;;-1.36
68510;BMP180;55512;50.102;19.958;2022-12-11T14:39:34;97189.60;;;-1.38
68510;BMP180;55512;50.102;19.958;2022-12-11T14:42:10;97198.60;;;-1.38
68510;BMP180;55512;50.102;19.958;2022-12-11T14:45:21;97196.20;;;-1.40
68510;BMP180;55512;50.102;19.958;2022-12-11T14:47:51;97196.20;;;-1.40
68510;BMP180;55512;50.102;19.958;2022-12-11T14:50:25;97189.00;;;-1.44
68510;BMP180;55512;50.102;19.958;2022-12-11T14:52:58;97195.80;;;-1.40
68510;BMP180;55512;50.102;19.958;2022-12-11T14:55:32;97198.60;;;-1.40
68510;BMP180;55512;50.102;19.958;2022-12-11T14:58:24;97192.60;;;-1.40
68510;BMP180;55512;50.102;19.958;2022-12-11T15:01:06;97196.40;;;-1.40
68510;BMP180;55512;50.102;19.958;2022-12-11T15:03:41;97198.40;;;-1.40
68510;BMP180;55512;50.102;19.958;2022-12-11T15:06:47;97199.40;;;-1.40
68510;BMP180;55512;50.102;19.958;2022-12-11T15:11:56;97199.00;;;-1.40
68510;BMP180;55512;50.102;19.958;2022-12-11T15:14:24;97202.40;;;-1.48
68510;BMP180;55512;50.102;19.958;2022-12-11T15:16:55;97203.20;;;-1.50
68510;BMP180;55512;50.102;19.958;2022-12-11T15:19:33;97210.00;;;-1.50
68510;BMP180;55512;50.102;19.958;2022-12-11T15:22:05;97214.40;;;-1.50
68510;BMP180;55512;50.102;19.958;2022-12-11T15:24:39;97220.80;;;-1.60
68510;BMP180;55512;50.102;19.958;2022-12-11T15:27:23;97228.60;;;-1.60